Time;durP1;ratioP1;P1;durP2;ratioP2;P2;SDS_P1;SDS_P2;PMS_P1;PMS_P2;Temp;Humidity;BMP_temperature;BMP_pressure;BME280_temperature;BME280_humidity;BME280_pressure;Samples;Min_cycle;Max_cycle;Signal;HPM_P1;HPM_P2
2023/12/28 00:00:51;;;;;;;3.10;0.80;;;;;;;15.25;31.68;101049.45;105216;1261;61579;-56
2023/12/28 00:03:19;;;;;;;3.10;1.30;;;;;;;15.20;31.69;101054.46;105013;1256;63742;-56
2023/12/28 00:05:47;;;;;;;3.00;0.90;;;;;;;15.14;31.85;101059.26;105150;1260;59737;-55
2023/12/28 00:08:15;;;;;;;4.60;1.20;;;;;;;15.09;32.01;101048.60;105271;1262;59621;-56
2023/12/28 00:10:42;;;;;;;4.20;1.40;;;;;;;15.05;32.00;101053.34;105226;1257;64069;-56
2023/12/28 00:13:10;;;;;;;6.90;2.70;;;;;;;15.02;32.10;101053.04;105117;1259;61366;-55
2023/12/28 00:15:37;;;;;;;3.70;1.00;;;;;;;15.00;32.11;101053.02;105316;1260;64304;-55
2023/12/28 00:18:05;;;;;;;4.20;1.00;;;;;;;15.08;31.99;101054.13;105088;1261;59651;-55
2023/12/28 00:20:33;;;;;;;4.70;1.00;;;;;;;15.19;31.89;101044.69;106287;1259;59657;-55
2023/12/28 00:23:01;;;;;;;3.40;0.80;;;;;;;15.30;31.86;101046.84;105400;1262;62839;-55
2023/12/28 00:25:29;;;;;;;5.80;0.90;;;;;;;15.38;31.66;101054.98;105509;1258;61603;-55
2023/12/28 00:27:57;;;;;;;3.50;0.90;;;;;;;15.40;31.69;101063.46;105133;1259;63816;-58
2023/12/28 00:30:25;;;;;;;4.30;1.00;;;;;;;15.43;31.56;101069.95;105770;1257;59705;-57
2023/12/28 00:32:53;;;;;;;6.10;1.70;;;;;;;15.44;31.53;101071.65;105058;1259;59505;-56
2023/12/28 00:35:20;;;;;;;4.70;1.00;;;;;;;15.43;31.53;101069.91;105169;1256;64153;-56
2023/12/28 00:37:48;;;;;;;4.10;0.80;;;;;;;15.41;31.63;101065.33;105151;1258;61949;-56
2023/12/28 00:40:16;;;;;;;2.70;0.80;;;;;;;15.40;31.74;101068.63;105173;1256;63747;-56
2023/12/28 00:42:43;;;;;;;5.90;1.30;;;;;;;15.35;31.88;101067.48;105194;1258;59647;-56
2023/12/28 00:45:11;;;;;;;6.10;1.40;;;;;;;15.29;31.89;101070.26;105155;1261;59562;-56
2023/12/28 00:47:39;;;;;;;8.30;3.40;;;;;;;15.27;31.96;101076.28;104957;1262;62830;-57
2023/12/28 00:50:07;;;;;;;4.90;1.30;;;;;;;15.28;31.96;101079.23;105067;1259;61336;-57
2023/12/28 00:52:36;;;;;;;5.90;1.30;;;;;;;15.28;31.98;101076.02;105489;1259;64411;-57
2023/12/28 00:55:04;;;;;;;4.10;1.40;;;;;;;15.28;31.93;101079.75;105556;1256;59695;-56
2023/12/28 00:57:32;;;;;;;6.40;1.50;;;;;;;15.28;31.94;101084.88;105581;1259;59656;-55
2023/12/28 01:00:00;;;;;;;4.70;1.50;;;;;;;15.28;31.91;101094.22;105650;1256;64109;-55
2023/12/28 01:02:28;;;;;;;5.10;0.90;;;;;;;15.33;31.86;101094.29;105232;1257;61382;-57
2023/12/28 01:04:56;;;;;;;3.90;0.80;;;;;;;15.43;31.83;101093.27;105586;1260;62842;-57
2023/12/28 01:07:24;;;;;;;4.30;1.20;;;;;;;15.51;31.74;101092.17;105573;1258;61022;-55
2023/12/28 01:09:52;;;;;;;4.60;1.50;;;;;;;15.54;31.53;101088.94;105214;1258;60325;-56
2023/12/28 01:12:19;;;;;;;4.60;1.10;;;;;;;15.58;31.49;101082.54;105139;1256;64108;-56
2023/12/28 01:14:47;;;;;;;5.60;2.40;;;;;;;15.61;31.49;101078.20;105067;1262;60097;-56
2023/12/28 01:17:15;;;;;;;7.60;3.20;;;;;;;15.63;31.42;101077.30;105151;1262;63712;-56
2023/12/28 01:19:42;;;;;;;5.40;1.20;;;;;;;15.64;31.22;101080.45;105029;1262;59664;-59
2023/12/28 01:22:11;;;;;;;4.00;1.50;;;;;;;15.62;31.07;101079.23;105286;1259;59647;-56
2023/12/28 01:24:38;;;;;;;5.10;1.40;;;;;;;15.58;31.32;101078.66;105164;1260;64238;-57
2023/12/28 01:27:06;;;;;;;2.90;0.80;;;;;;;15.57;31.34;101081.60;105491;1261;60277;-54
2023/12/28 01:29:34;;;;;;;4.60;1.10;;;;;;;15.55;31.10;101076.31;105439;1262;62456;-55
2023/12/28 01:32:03;;;;;;;4.80;1.30;;;;;;;15.52;30.94;101075.00;105207;1256;59666;-56
2023/12/28 01:34:31;;;;;;;6.60;2.60;;;;;;;15.49;30.80;101076.52;105714;1259;59709;-56
2023/12/28 01:36:59;;;;;;;5.30;1.10;;;;;;;15.46;30.63;101073.96;105159;1257;64121;-56
2023/12/28 01:39:26;;;;;;;8.60;1.70;;;;;;;15.41;30.51;101066.95;104940;1261;61373;-55
2023/12/28 01:41:55;;;;;;;5.60;1.40;;;;;;;15.36;30.48;101061.55;105000;1256;64713;-55
2023/12/28 01:44:23;;;;;;;7.90;2.00;;;;;;;15.33;30.21;101061.25;105176;1260;59747;-56
2023/12/28 01:46:51;;;;;;;7.90;3.60;;;;;;;15.33;30.16;101063.25;105146;1262;59752;-56
2023/12/28 01:49:18;;;;;;;4.10;1.00;;;;;;;15.34;30.11;101061.02;104953;1263;64139;-55
2023/12/28 01:51:46;;;;;;;5.70;1.10;;;;;;;15.32;30.04;101059.73;105102;1262;60135;-54
2023/12/28 01:54:14;;;;;;;4.40;0.90;;;;;;;15.32;29.92;101065.25;104972;1257;64221;-55
2023/12/28 01:56:43;;;;;;;3.10;1.40;;;;;;;15.30;29.76;101075.33;105472;1258;59773;-55
2023/12/28 01:59:10;;;;;;;5.70;1.30;;;;;;;15.27;29.73;101074.16;105961;1260;59605;-54
2023/12/28 02:01:38;;;;;;;3.90;2.00;;;;;;;15.28;29.80;101081.89;105212;1260;62967;-56
2023/12/28 02:04:06;;;;;;;5.90;1.60;;;;;;;15.28;29.54;101086.34;105078;1262;61438;-53
2023/12/28 02:06:34;;;;;;;8.40;1.10;;;;;;;15.26;29.55;101082.44;105305;1261;63827;-53
2023/12/28 02:09:01;;;;;;;4.40;0.90;;;;;;;15.25;29.48;101082.27;105535;1262;59783;-55
2023/12/28 02:11:30;;;;;;;5.90;1.20;;;;;;;15.24;29.47;101081.65;105681;1257;59750;-55
2023/12/28 02:13:58;;;;;;;4.40;2.10;;;;;;;15.26;29.46;101082.27;105431;1259;62877;-55
2023/12/28 02:16:32;;;;;;;5.70;1.50;;;;;;;15.28;29.42;101084.05;105712;1256;61306;-55
2023/12/28 02:19:01;;;;;;;4.30;1.10;;;;;;;15.29;29.58;101086.77;105215;1270;63778;-58
2023/12/28 02:21:28;;;;;;;7.20;2.90;;;;;;;15.28;29.40;101093.39;105595;1257;59673;-57
2023/12/28 02:23:56;;;;;;;7.90;1.40;;;;;;;15.29;29.37;101103.30;105156;1262;61637;-57
2023/12/28 02:26:24;;;;;;;5.10;1.10;;;;;;;15.33;29.35;101101.60;105690;1263;64168;-55
2023/12/28 02:28:53;;;;;;;4.20;1.20;;;;;;;15.34;29.44;101107.14;105903;1261;61594;-56
2023/12/28 02:31:22;;;;;;;5.10;1.50;;;;;;;15.33;29.44;101115.39;105105;1261;63769;-56
2023/12/28 02:33:57;;;;;;;5.30;1.40;;;;;;;15.33;29.49;101115.55;105215;1260;61109;-55
2023/12/28 02:36:25;;;;;;;2.80;0.80;;;;;;;15.34;29.31;101120.89;105818;1261;59765;-57
2023/12/28 02:38:55;;;;;;;3.10;0.80;;;;;;;15.34;29.24;101126.27;105620;1263;64207;-57
2023/12/28 02:41:22;;;;;;;5.00;1.40;;;;;;;15.33;29.40;101133.92;105706;1263;60512;-57
2023/12/28 02:43:50;;;;;;;6.60;1.90;;;;;;;15.32;29.44;101140.01;105169;1268;63752;-55
2023/12/28 02:46:18;;;;;;;2.80;1.20;;;;;;;15.34;29.33;101145.55;105344;1256;59742;-54
2023/12/28 02:48:49;;;;;;;6.90;1.30;;;;;;;15.37;29.43;101147.69;105329;1262;59685;-55
2023/12/28 02:51:17;;;;;;;3.20;1.50;;;;;;;15.41;29.42;101151.04;105030;1257;64267;-56
2023/12/28 02:53:44;;;;;;;3.20;0.70;;;;;;;15.40;29.31;101149.90;105197;1260;60382;-56
2023/12/28 02:56:12;;;;;;;4.90;1.70;;;;;;;15.37;29.28;101147.66;105124;1259;63989;-56
2023/12/28 02:58:41;;;;;;;3.50;1.50;;;;;;;15.37;29.31;101152.63;105346;1257;59822;-57
2023/12/28 03:01:09;;;;;;;3.40;1.00;;;;;;;15.34;29.33;101153.98;105129;1261;60427;-55
2023/12/28 03:03:37;;;;;;;3.70;1.00;;;;;;;15.31;29.36;101158.09;105457;1262;64150;-57
2023/12/28 03:06:05;;;;;;;7.40;1.00;;;;;;;15.31;29.52;101160.09;105087;1264;61464;-52
2023/12/28 03:08:32;;;;;;;4.90;1.60;;;;;;;15.29;29.52;101159.19;105495;1262;64281;-55
2023/12/28 03:11:00;;;;;;;7.60;3.00;;;;;;;15.25;29.55;101154.07;104971;1263;59770;-56
2023/12/28 03:13:27;;;;;;;3.80;1.20;;;;;;;15.23;29.43;101154.46;105810;1260;59798;-56
2023/12/28 03:15:55;;;;;;;4.00;1.20;;;;;;;15.21;29.48;101153.03;105711;1259;64047;-55
2023/12/28 03:18:23;;;;;;;5.50;1.50;;;;;;;15.20;29.58;101154.53;105885;1258;60080;-54
2023/12/28 03:20:52;;;;;;;3.40;0.90;;;;;;;15.19;29.55;101155.61;105847;1261;63932;-55
2023/12/28 03:23:19;;;;;;;3.50;1.60;;;;;;;15.18;29.59;101158.71;105142;1262;59857;-58
2023/12/28 03:25:47;;;;;;;3.10;1.10;;;;;;;15.16;29.70;101163.52;105164;1257;59558;-57
2023/12/28 03:28:15;;;;;;;3.90;1.00;;;;;;;15.12;29.69;101164.91;105079;1258;63662;-55
2023/12/28 03:30:42;;;;;;;4.90;1.10;;;;;;;15.06;29.70;101167.40;105160;1264;61911;-53
2023/12/28 03:33:10;;;;;;;3.50;0.90;;;;;;;15.00;29.74;101166.30;105016;1263;63691;-53
2023/12/28 03:35:38;;;;;;;2.30;0.70;;;;;;;14.96;29.83;101173.66;105199;1257;60583;-55
2023/12/28 03:38:06;;;;;;;3.10;1.10;;;;;;;14.93;29.88;101177.31;105134;1261;60398;-54
2023/12/28 03:40:34;;;;;;;3.30;0.90;;;;;;;14.87;29.86;101171.33;105615;1259;63616;-55
2023/12/28 03:43:01;;;;;;;4.00;1.30;;;;;;;14.83;30.09;101175.48;105194;1262;60387;-54
2023/12/28 03:45:29;;;;;;;3.90;1.00;;;;;;;14.81;30.13;101170.59;105214;1260;62529;-57
2023/12/28 03:47:57;;;;;;;7.80;1.90;;;;;;;14.79;29.98;101169.02;105144;1263;60458;-56
2023/12/28 03:50:25;;;;;;;5.50;1.70;;;;;;;14.79;30.08;101163.34;105556;1263;60502;-55
2023/12/28 03:52:53;;;;;;;6.20;2.10;;;;;;;14.76;30.07;101162.32;105848;1257;64946;-58
2023/12/28 03:55:21;;;;;;;6.70;2.10;;;;;;;14.72;30.18;101162.85;104933;1262;61329;-54
2023/12/28 03:57:51;;;;;;;4.30;1.70;;;;;;;14.67;30.17;101161.12;105222;1254;63740;-55
2023/12/28 04:00:19;;;;;;;4.80;1.40;;;;;;;14.65;30.28;101162.42;105030;1260;60561;-55
2023/12/28 04:02:46;;;;;;;7.70;3.10;;;;;;;14.62;30.24;101162.06;105324;1261;60447;-56
2023/12/28 04:05:17;;;;;;;5.10;1.60;;;;;;;14.59;30.25;101162.86;105205;1258;64890;-57
2023/12/28 04:07:45;;;;;;;4.20;1.20;;;;;;;14.60;30.27;101163.02;105130;1264;61377;-54
2023/12/28 04:10:12;;;;;;;5.90;1.60;;;;;;;14.60;30.34;101170.46;105227;1258;63979;-56
2023/12/28 04:12:40;;;;;;;3.60;1.00;;;;;;;14.58;30.26;101176.42;104915;1262;60566;-55
2023/12/28 04:15:08;;;;;;;4.40;1.50;;;;;;;14.55;30.27;101173.83;104995;1265;59311;-57
2023/12/28 04:17:36;;;;;;;4.90;1.50;;;;;;;14.50;30.32;101172.40;105583;1256;64959;-57
2023/12/28 04:20:06;;;;;;;3.70;1.10;;;;;;;14.47;30.43;101171.08;105458;1258;61301;-57
2023/12/28 04:22:33;;;;;;;3.10;1.00;;;;;;;14.45;30.49;101172.88;105412;1262;62461;-56
2023/12/28 04:25:01;;;;;;;7.20;2.20;;;;;;;14.48;30.43;101171.17;105126;1260;60560;-57
2023/12/28 04:27:29;;;;;;;6.70;1.50;;;;;;;14.58;30.40;101171.59;104965;1263;60468;-58
2023/12/28 04:29:56;;;;;;;4.60;1.60;;;;;;;14.70;30.26;101178.25;105195;1258;72931;-57
2023/12/28 04:32:24;;;;;;;6.20;1.30;;;;;;;14.79;30.10;101185.64;105715;1261;61400;-55
2023/12/28 04:34:52;;;;;;;11.40;2.90;;;;;;;14.84;29.96;101190.61;105025;1263;63779;-55
2023/12/28 04:37:20;;;;;;;11.50;4.30;;;;;;;14.85;29.94;101191.62;105162;1257;60419;-56
2023/12/28 04:39:47;;;;;;;47.50;21.90;;;;;;;14.83;29.93;101190.94;104875;1264;59282;-57
2023/12/28 04:42:15;;;;;;;66.60;29.10;;;;;;;14.81;30.02;101195.14;105174;1260;64914;-57
2023/12/28 04:44:43;;;;;;;77.80;33.30;;;;;;;14.79;29.99;101199.15;105161;1257;61372;-56
2023/12/28 04:47:10;;;;;;;57.60;20.70;;;;;;;14.80;29.98;101201.24;105101;1256;63726;-57
2023/12/28 04:49:38;;;;;;;16.90;6.30;;;;;;;14.73;30.13;101202.54;104954;1260;60434;-58
2023/12/28 04:52:06;;;;;;;43.40;17.70;;;;;;;14.67;30.09;101199.83;105622;1259;60451;-54
2023/12/28 04:54:33;;;;;;;37.30;14.10;;;;;;;14.62;30.14;101199.34;105487;1257;63648;-55
2023/12/28 04:57:01;;;;;;;32.30;13.30;;;;;;;14.56;30.19;101205.99;105388;1263;60469;-56
2023/12/28 04:59:29;;;;;;;28.80;11.70;;;;;;;14.52;30.13;101208.89;104989;1264;63731;-58
2023/12/28 05:01:56;;;;;;;21.40;8.90;;;;;;;14.44;30.20;101211.59;105166;1257;60564;-56
2023/12/28 05:04:24;;;;;;;12.50;5.90;;;;;;;14.37;30.31;101212.39;105215;1261;60514;-56
2023/12/28 05:06:52;;;;;;;19.60;7.00;;;;;;;14.30;30.45;101212.39;105254;1261;65025;-56
2023/12/28 05:09:19;;;;;;;21.40;9.30;;;;;;;14.26;30.51;101209.89;105085;1260;61565;-57
2023/12/28 05:11:47;;;;;;;13.80;4.90;;;;;;;14.21;30.57;101207.16;105111;1261;62551;-54
2023/12/28 05:14:14;;;;;;;10.10;4.60;;;;;;;14.15;30.72;101203.77;104945;1264;60449;-56
2023/12/28 05:16:42;;;;;;;10.20;3.10;;;;;;;14.09;30.88;101204.42;105291;1261;60557;-57
2023/12/28 05:19:10;;;;;;;6.80;2.60;;;;;;;14.03;30.95;101198.41;105440;1258;63725;-54
2023/12/28 05:21:38;;;;;;;6.80;3.30;;;;;;;13.96;30.94;101199.34;105161;1264;61787;-56
2023/12/28 05:24:05;;;;;;;7.70;3.40;;;;;;;13.89;31.05;101198.79;105027;1264;66902;-55
2023/12/28 05:26:33;;;;;;;6.60;3.20;;;;;;;13.83;31.14;101195.95;104955;1257;60958;-54
2023/12/28 05:29:00;;;;;;;7.60;2.60;;;;;;;13.74;31.27;101194.02;105512;1257;60512;-55
2023/12/28 05:31:28;;;;;;;7.00;3.10;;;;;;;13.67;31.38;101195.60;105078;1257;63687;-56
2023/12/28 05:33:58;;;;;;;34.50;15.70;;;;;;;13.65;31.50;101199.86;105621;1257;61314;-57
2023/12/28 05:36:26;;;;;;;53.90;24.00;;;;;;;13.64;31.50;101208.23;105686;1260;63695;-55
2023/12/28 05:38:53;;;;;;;77.30;30.80;;;;;;;13.63;31.50;101209.16;105112;1258;60441;-58
2023/12/28 05:41:21;;;;;;;98.30;37.80;;;;;;;13.64;31.53;101208.25;105018;1260;60575;-56
2023/12/28 05:43:48;;;;;;;68.10;24.10;;;;;;;13.65;31.51;101212.75;105031;1262;64938;-55
2023/12/28 05:46:16;;;;;;;39.30;18.90;;;;;;;13.66;31.46;101215.85;105005;1262;60404;-56
2023/12/28 05:48:43;;;;;;;37.00;16.40;;;;;;;13.67;31.58;101210.84;105054;1258;63742;-56
2023/12/28 05:51:11;;;;;;;17.80;5.20;;;;;;;13.72;31.51;101213.95;105004;1260;60591;-54
2023/12/28 05:53:39;;;;;;;18.40;6.50;;;;;;;13.75;31.52;101211.05;105166;1257;60326;-55
2023/12/28 05:56:06;;;;;;;25.30;9.80;;;;;;;13.83;31.47;101211.14;104935;1263;65967;-57
2023/12/28 05:58:34;;;;;;;28.20;10.40;;;;;;;13.91;31.42;101212.36;104900;1257;60602;-59
2023/12/28 06:01:04;;;;;;;39.20;14.50;;;;;;;13.98;31.36;101206.35;105339;1261;63789;-56
2023/12/28 06:03:32;;;;;;;47.80;16.70;;;;;;;14.03;31.28;101200.88;105458;1263;60340;-54
2023/12/28 06:06:00;;;;;;;41.70;14.70;;;;;;;14.03;31.32;101205.14;105045;1260;60505;-54
2023/12/28 06:08:27;;;;;;;53.00;18.80;;;;;;;14.02;31.44;101203.79;105619;1257;64944;-57
2023/12/28 06:10:55;;;;;;;49.30;18.90;;;;;;;14.01;31.33;101205.28;105019;1264;61373;-57
2023/12/28 06:13:23;;;;;;;41.80;15.80;;;;;;;13.97;31.25;101205.42;105150;1260;63781;-57
2023/12/28 06:15:50;;;;;;;23.20;11.00;;;;;;;13.94;31.26;101206.51;105071;1260;60572;-55
2023/12/28 06:18:18;;;;;;;21.90;7.70;;;;;;;13.91;31.34;101208.69;105156;1257;60546;-55
2023/12/28 06:20:46;;;;;;;15.00;5.50;;;;;;;13.86;31.43;101214.00;105160;1262;64879;-55
2023/12/28 06:23:13;;;;;;;30.30;12.50;;;;;;;13.82;31.52;101215.23;105091;1258;61378;-55
2023/12/28 06:25:41;;;;;;;21.80;10.70;;;;;;;13.82;31.54;101214.19;104971;1259;63801;-58
2023/12/28 06:28:08;;;;;;;17.50;6.60;;;;;;;13.82;31.57;101212.94;105316;1257;60445;-56
2023/12/28 06:30:36;;;;;;;15.40;6.20;;;;;;;13.80;31.60;101210.33;105063;1257;60579;-67
2023/12/28 06:33:04;;;;;;;20.50;9.90;;;;;;;13.79;31.57;101216.41;105001;1258;63643;-60
2023/12/28 06:35:31;;;;;;;19.10;7.60;;;;;;;13.80;31.68;101218.73;105109;1260;60449;-61
2023/12/28 06:37:59;;;;;;;75.80;33.00;;;;;;;13.81;31.83;101220.80;105199;1262;71537;-60
2023/12/28 06:40:27;;;;;;;87.10;35.30;;;;;;;13.82;31.67;101222.64;105184;1257;61007;-60
2023/12/28 06:42:55;;;;;;;73.60;28.50;;;;;;;13.83;31.68;101229.98;105196;1258;60488;-59
2023/12/28 06:45:27;;;;;;;27.50;8.20;;;;;;;13.87;31.82;101240.10;105062;1261;64920;-60
2023/12/28 06:47:55;;;;;;;11.50;4.50;;;;;;;13.88;31.92;101239.77;105873;1258;61376;-60
2023/12/28 06:50:23;;;;;;;25.30;9.50;;;;;;;13.90;31.84;101236.27;105740;1256;62442;-59
2023/12/28 06:52:51;;;;;;;30.50;8.30;;;;;;;13.93;31.77;101233.20;105789;1260;60818;-59
2023/12/28 06:55:19;;;;;;;16.10;5.40;;;;;;;13.94;31.78;101236.66;105145;1260;60435;-61
2023/12/28 06:57:46;;;;;;;12.90;4.20;;;;;;;13.95;31.67;101236.60;105167;1261;67092;-61
2023/12/28 07:00:15;;;;;;;13.20;4.00;;;;;;;13.98;31.74;101236.59;105045;1258;61347;-60
2023/12/28 07:02:42;;;;;;;20.50;6.90;;;;;;;14.03;31.65;101240.02;105421;1257;62497;-61
2023/12/28 07:05:12;;;;;;;17.40;5.70;;;;;;;14.07;31.64;101246.89;105132;1257;60454;-60
2023/12/28 07:07:39;;;;;;;21.40;7.60;;;;;;;14.19;31.63;101254.38;105416;1259;60369;-61
2023/12/28 07:10:07;;;;;;;21.90;8.10;;;;;;;14.34;31.35;101265.56;104956;1261;65302;-61
2023/12/28 07:12:35;;;;;;;20.50;7.60;;;;;;;14.50;31.24;101273.13;106352;1257;60445;-61
2023/12/28 07:15:03;;;;;;;19.10;5.30;;;;;;;14.63;31.16;101269.55;105082;1264;62591;-61
2023/12/28 07:17:31;;;;;;;18.40;6.40;;;;;;;14.80;31.01;101267.25;108956;1257;58183;-63
2023/12/28 07:20:01;;;;;;;7.30;3.70;;;;;;;14.98;30.73;101271.42;109073;1257;58635;-61
2023/12/28 07:22:29;;;;;;;12.40;4.90;;;;;;;15.05;30.57;101283.73;108980;1257;64940;-62
2023/12/28 07:24:56;;;;;;;9.10;3.10;;;;;;;15.04;30.36;101287.66;107987;1257;61542;-60
2023/12/28 07:27:30;;;;;;;8.10;3.20;;;;;;;14.98;30.35;101291.71;105113;1257;63688;-63
2023/12/28 07:29:58;;;;;;;9.80;3.80;;;;;;;14.88;30.35;101297.01;105358;1260;60592;-61
2023/12/28 07:32:26;;;;;;;19.10;3.20;;;;;;;14.82;30.50;101303.14;105736;1257;60473;-63
2023/12/28 07:34:54;;;;;;;7.40;3.00;;;;;;;14.77;30.69;101298.96;105732;1260;65119;-62
2023/12/28 07:37:22;;;;;;;5.70;2.20;;;;;;;14.73;30.75;101297.34;105049;1264;61415;-59
2023/12/28 07:39:49;;;;;;;7.70;2.70;;;;;;;14.71;30.90;101300.70;105135;1258;63746;-63
2023/12/28 07:42:17;;;;;;;7.60;2.90;;;;;;;14.67;30.74;101305.41;105207;1257;60511;-61
2023/12/28 07:44:45;;;;;;;5.80;2.10;;;;;;;14.62;30.82;101308.00;104933;1257;60477;-59
2023/12/28 07:47:14;;;;;;;6.60;2.60;;;;;;;14.58;30.80;101304.55;105162;1257;64944;-59
2023/12/28 07:49:41;;;;;;;7.40;2.50;;;;;;;14.53;30.97;101300.21;105263;1257;61503;-60
2023/12/28 07:52:09;;;;;;;8.30;2.70;;;;;;;14.50;31.10;101300.27;105369;1257;63724;-60
2023/12/28 07:54:37;;;;;;;14.80;4.50;;;;;;;14.50;31.15;101297.06;105033;1260;61374;-60
2023/12/28 07:57:04;;;;;;;23.70;9.60;;;;;;;14.53;31.19;101292.42;105062;1257;60381;-62
2023/12/28 07:59:32;;;;;;;17.10;6.40;;;;;;;14.58;31.26;101293.43;105016;1261;63814;-61
2023/12/28 08:02:00;;;;;;;30.90;12.70;;;;;;;14.63;31.22;101294.65;106460;1259;60442;-60
2023/12/28 08:04:31;;;;;;;18.40;7.10;;;;;;;14.68;31.21;101302.55;105001;1264;63765;-60
2023/12/28 08:06:59;;;;;;;12.50;3.70;;;;;;;14.73;31.13;101313.43;105403;1263;60353;-63
2023/12/28 08:09:27;;;;;;;8.30;3.80;;;;;;;14.76;31.13;101317.78;105085;1258;60547;-63
2023/12/28 08:11:54;;;;;;;8.20;2.80;;;;;;;14.78;31.10;101318.16;105128;1256;63654;-62
2023/12/28 08:14:22;;;;;;;16.10;4.90;;;;;;;14.78;31.08;101308.06;105076;1256;61305;-64
2023/12/28 08:16:50;;;;;;;14.30;3.60;;;;;;;14.83;31.12;101299.73;105941;1260;62430;-62
2023/12/28 08:19:17;;;;;;;13.50;4.40;;;;;;;14.96;30.84;101296.17;105102;1257;60522;-59
2023/12/28 08:21:45;;;;;;;13.80;3.60;;;;;;;15.11;30.70;101298.61;105042;1258;60585;-61
2023/12/28 08:24:12;;;;;;;11.60;3.90;;;;;;;15.19;30.64;101295.84;105143;1260;64924;-61
2023/12/28 08:26:40;;;;;;;9.30;3.80;;;;;;;15.25;30.53;101290.86;105094;1257;61886;-59
2023/12/28 08:29:07;;;;;;;12.00;4.70;;;;;;;15.29;30.55;101284.89;105077;1258;63782;-59
2023/12/28 08:31:35;;;;;;;12.20;3.50;;;;;;;15.33;30.47;101285.60;105122;1257;60937;-62
2023/12/28 08:34:03;;;;;;;16.10;5.30;;;;;;;15.32;30.53;101282.33;105649;1260;60559;-60
2023/12/28 08:36:30;;;;;;;11.30;3.50;;;;;;;15.34;30.54;101280.94;105422;1260;64940;-61
2023/12/28 08:38:58;;;;;;;12.30;4.40;;;;;;;15.35;30.37;101274.59;105132;1260;60437;-61
2023/12/28 08:41:26;;;;;;;12.30;5.40;;;;;;;15.33;30.39;101273.73;105721;1257;63804;-63
2023/12/28 08:43:54;;;;;;;10.70;3.80;;;;;;;15.30;30.47;101279.11;105209;1257;60562;-61
2023/12/28 08:46:22;;;;;;;10.20;3.80;;;;;;;15.29;30.55;101278.14;105175;1257;60494;-59
2023/12/28 08:48:50;;;;;;;8.00;2.90;;;;;;;15.25;30.47;101276.71;105183;1256;64965;-60
2023/12/28 08:51:18;;;;;;;8.50;3.30;;;;;;;15.21;30.59;101274.20;105096;1259;60419;-59
2023/12/28 08:53:46;;;;;;;6.70;2.20;;;;;;;15.20;30.73;101269.59;105239;1255;63713;-60
2023/12/28 08:56:15;;;;;;;4.50;1.90;;;;;;;15.19;30.72;101274.05;105367;1259;60582;-60
2023/12/28 08:58:44;;;;;;;11.00;3.60;;;;;;;15.19;30.69;101276.02;105508;1260;60506;-62
2023/12/28 09:01:21;;;;;;;6.40;2.70;;;;;;;15.22;30.84;101271.11;105399;1256;65080;-60
2023/12/28 09:03:49;;;;;;;5.60;2.30;;;;;;;15.26;30.79;101262.17;105931;1256;60412;-62
2023/12/28 09:06:18;;;;;;;7.30;2.80;;;;;;;15.27;30.76;101257.15;105088;1260;64652;-61
2023/12/28 09:08:48;;;;;;;6.50;2.90;;;;;;;15.28;30.81;101256.32;105181;1257;60535;-60
2023/12/28 09:11:16;;;;;;;12.00;4.40;;;;;;;15.29;30.79;101256.73;105218;1258;61675;-61
2023/12/28 09:13:43;;;;;;;6.30;2.70;;;;;;;15.28;30.84;101250.52;105382;1258;64959;-62
2023/12/28 09:16:13;;;;;;;5.90;2.40;;;;;;;15.29;30.83;101233.08;105178;1259;60504;-64
2023/12/28 09:18:41;;;;;;;5.20;2.40;;;;;;;15.36;30.90;101222.73;105178;1262;63763;-62
2023/12/28 09:21:09;;;;;;;9.20;3.20;;;;;;;15.46;30.84;101234.10;105380;1261;60470;-61
2023/12/28 09:23:38;;;;;;;6.40;1.90;;;;;;;15.50;30.63;101241.20;105365;1256;60544;-60
2023/12/28 09:26:06;;;;;;;7.60;1.90;;;;;;;15.57;30.62;101235.64;105539;1257;64921;-58
2023/12/28 09:28:33;;;;;;;5.80;1.30;;;;;;;15.72;30.53;101222.79;105124;1261;60513;-59
2023/12/28 09:31:01;;;;;;;10.00;5.60;;;;;;;15.84;30.30;101209.02;105593;1258;62567;-61
2023/12/28 09:33:30;;;;;;;5.30;1.90;;;;;;;15.92;30.35;101210.95;105651;1257;60529;-58
2023/12/28 09:35:58;;;;;;;4.90;1.70;;;;;;;15.96;30.26;101213.09;106450;1257;60469;-57
2023/12/28 09:38:26;;;;;;;6.90;2.30;;;;;;;15.98;30.16;101214.17;105798;1259;65036;-57
2023/12/28 09:40:55;;;;;;;15.00;2.90;;;;;;;15.99;30.19;101212.13;105208;1260;61593;-56
2023/12/28 09:43:29;;;;;;;7.80;2.30;;;;;;;16.01;30.12;101212.44;105786;1257;63719;-55
2023/12/28 09:45:57;;;;;;;12.30;6.20;;;;;;;15.99;30.26;101215.85;105726;1257;60558;-55
2023/12/28 09:48:24;;;;;;;5.20;2.20;;;;;;;15.96;30.29;101215.90;105195;1257;60721;-56
2023/12/28 09:50:54;;;;;;;6.40;2.00;;;;;;;15.98;30.14;101201.41;105139;1258;65840;-55
2023/12/28 09:53:26;;;;;;;6.40;2.80;;;;;;;15.96;30.34;101190.76;105313;1259;60446;-55
2023/12/28 09:55:53;;;;;;;11.40;5.90;;;;;;;15.99;30.42;101194.05;105970;1257;62540;-53
2023/12/28 09:58:21;;;;;;;7.50;2.90;;;;;;;15.97;30.45;101186.27;105430;1253;60444;-55
2023/12/28 10:00:49;;;;;;;8.10;3.20;;;;;;;15.94;30.47;101180.16;105318;1256;60426;-56
2023/12/28 10:03:18;;;;;;;7.20;3.10;;;;;;;15.97;30.68;101174.60;105313;1258;64973;-54
2023/12/28 10:05:46;;;;;;;7.00;2.50;;;;;;;16.02;30.56;101175.91;105231;1255;61411;-55
2023/12/28 10:08:15;;;;;;;7.50;2.30;;;;;;;16.03;30.56;101175.31;105412;1258;63682;-55
2023/12/28 10:10:50;;;;;;;11.00;2.50;;;;;;;16.06;30.40;101169.00;105559;1253;60607;-55
2023/12/28 10:13:18;;;;;;;11.70;3.30;;;;;;;16.08;30.36;101163.68;105397;1254;60677;-55
2023/12/28 10:15:46;;;;;;;8.80;2.20;;;;;;;16.06;30.32;101157.67;105239;1257;65017;-56
2023/12/28 10:18:14;;;;;;;6.90;2.00;;;;;;;16.06;30.35;101154.88;105262;1260;62869;-55
2023/12/28 10:20:41;;;;;;;6.60;2.80;;;;;;;16.04;30.33;101152.17;105387;1254;74834;-51
2023/12/28 10:23:10;;;;;;;6.90;2.60;;;;;;;16.05;30.44;101138.34;105526;1254;60451;-57
2023/12/28 10:25:37;;;;;;;13.10;5.80;;;;;;;16.10;30.32;101132.38;105354;1255;60640;-57
2023/12/28 10:28:06;;;;;;;5.70;2.70;;;;;;;16.12;30.20;101136.92;105296;1260;65026;-56
2023/12/28 10:30:33;;;;;;;7.00;2.40;;;;;;;16.13;30.14;101136.89;105718;1257;60406;-54
2023/12/28 10:33:05;;;;;;;11.00;6.10;;;;;;;16.10;30.38;101136.64;105290;1257;63760;-55
2023/12/28 10:35:33;;;;;;;6.40;1.70;;;;;;;16.08;30.26;101132.51;105719;1255;60486;-55
2023/12/28 10:38:04;;;;;;;8.70;2.40;;;;;;;16.12;30.12;101128.09;105785;1254;61113;-57
2023/12/28 10:40:32;;;;;;;7.20;2.90;;;;;;;16.14;30.18;101122.08;105328;1255;65005;-58
2023/12/28 10:43:02;;;;;;;5.50;2.00;;;;;;;16.21;30.19;101115.42;105728;1254;61470;-58
2023/12/28 10:45:34;;;;;;;7.10;2.60;;;;;;;16.30;30.34;101114.63;105703;1255;75349;-57
2023/12/28 10:48:12;;;;;;;11.00;6.40;;;;;;;16.43;30.26;101107.95;105688;1254;60512;-57
2023/12/28 10:50:58;;;;;;;5.20;1.70;;;;;;;16.57;30.28;101106.03;105617;1256;60383;-57
2023/12/28 10:53:56;;;;;;;5.30;1.60;;;;;;;16.75;29.88;101089.52;105166;1254;64934;-57
2023/12/28 10:56:56;;;;;;;5.80;1.80;;;;;;;16.96;29.74;101084.56;105862;1255;60625;-57
2023/12/28 10:59:29;;;;;;;3.90;1.30;;;;;;;17.20;29.53;101080.77;105912;1255;74837;-57
2023/12/28 11:01:57;;;;;;;6.20;1.50;;;;;;;17.37;29.42;101076.80;106616;1256;60397;-57
2023/12/28 11:04:33;;;;;;;8.60;4.20;;;;;;;17.50;29.01;101077.88;105134;1260;62071;-57
2023/12/28 11:07:02;;;;;;;6.10;1.70;;;;;;;17.57;28.96;101079.42;105800;1255;67075;-57
2023/12/28 11:09:30;;;;;;;9.60;4.70;;;;;;;17.66;28.88;101087.52;105848;1254;61987;-57
2023/12/28 11:12:01;;;;;;;6.00;1.90;;;;;;;17.72;28.76;101081.26;105869;1254;63701;-57
2023/12/28 11:14:28;;;;;;;9.50;4.60;;;;;;;17.73;28.44;101084.63;105879;1254;60407;-56
2023/12/28 11:16:58;;;;;;;5.90;2.10;;;;;;;17.68;28.47;101081.95;105282;1254;61382;-65
2023/12/28 11:19:26;;;;;;;14.20;5.20;;;;;;;17.70;28.57;101078.45;105947;1253;65531;-65